Time;durP1;ratioP1;P1;durP2;ratioP2;P2;SDS_P1;SDS_P2;PMS_P1;PMS_P2;Temp;Humidity;BMP_temperature;BMP_pressure;BME280_temperature;BME280_humidity;BME280_pressure;Samples;Min_cycle;Max_cycle;Signal;HPM_P1;HPM_P2
2022/08/26 00:01:23;;;;;;;18.00;3.75;;;;;;;15.31;79.40;95491.34;1732086;83;21031;-71
2022/08/26 00:03:49;;;;;;;9.80;3.83;;;;;;;15.28;78.69;95492.79;1731861;83;21584;-71
2022/08/26 00:06:17;;;;;;;8.63;3.00;;;;;;;15.31;78.82;95486.02;1732190;83;21051;-70
2022/08/26 00:08:44;;;;;;;9.05;3.27;;;;;;;15.26;78.04;95483.53;1732135;83;21054;-70
2022/08/26 00:11:11;;;;;;;13.53;3.47;;;;;;;15.23;78.12;95483.66;1731893;83;21556;-71
2022/08/26 00:13:39;;;;;;;13.18;4.53;;;;;;;15.11;77.83;95485.45;1731947;83;20991;-70
2022/08/26 00:16:08;;;;;;;10.75;3.47;;;;;;;14.97;79.21;95487.31;1732169;83;21062;-71
2022/08/26 00:18:35;;;;;;;8.75;4.10;;;;;;;14.90;79.26;95488.00;1732213;83;21062;-71
2022/08/26 00:21:02;;;;;;;10.63;3.75;;;;;;;14.89;79.83;95484.05;1732207;83;21030;-71
2022/08/26 00:23:29;;;;;;;9.70;3.45;;;;;;;14.91;79.65;95476.91;1732149;83;21015;-71
2022/08/26 00:25:56;;;;;;;14.30;3.65;;;;;;;14.84;79.75;95480.27;1732181;83;21011;-71
2022/08/26 00:28:22;;;;;;;5.78;3.62;;;;;;;14.83;80.19;95474.53;1732040;82;21015;-71
2022/08/26 00:30:49;;;;;;;8.45;3.62;;;;;;;14.80;79.62;95472.00;1732223;83;21493;-71
2022/08/26 00:33:18;;;;;;;8.48;4.17;;;;;;;14.81;80.67;95472.86;1732123;83;20995;-71
2022/08/26 00:35:46;;;;;;;9.30;4.03;;;;;;;14.78;80.23;95465.87;1732120;83;21077;-71
2022/08/26 00:38:15;;;;;;;11.48;3.65;;;;;;;14.73;80.03;95470.48;1732164;83;21031;-71
2022/08/26 00:40:47;;;;;;;11.30;3.58;;;;;;;14.73;79.96;95468.30;1732050;83;21034;-71
2022/08/26 00:43:14;;;;;;;10.00;3.92;;;;;;;14.66;79.86;95467.64;1732302;82;21054;-71
2022/08/26 00:45:55;;;;;;;8.88;3.30;;;;;;;14.64;79.87;95465.50;1732086;83;21572;-70
2022/08/26 00:48:25;;;;;;;4.65;2.98;;;;;;;14.63;79.72;95463.78;1731971;82;21086;-70
2022/08/26 00:50:57;;;;;;;5.22;3.37;;;;;;;14.64;79.27;95465.06;1732146;83;21003;-70
2022/08/26 00:53:28;;;;;;;7.78;3.17;;;;;;;14.63;78.80;95467.77;1732280;83;20991;-70
2022/08/26 00:56:02;;;;;;;11.05;3.40;;;;;;;14.49;79.71;95472.23;1732000;83;21545;-71
2022/08/26 00:58:31;;;;;;;8.90;3.25;;;;;;;14.50;80.55;95465.98;1732274;83;21464;-71
2022/08/26 01:00:58;;;;;;;9.38;3.83;;;;;;;14.56;80.03;95468.91;1692024;84;21035;-71
2022/08/26 01:03:28;;;;;;;8.68;3.25;;;;;;;14.61;79.84;95468.27;1709057;84;20987;-71
2022/08/26 01:05:59;;;;;;;7.60;3.17;;;;;;;14.60;79.65;95465.23;1709049;84;21528;-71
2022/08/26 01:08:26;;;;;;;16.67;4.00;;;;;;;14.63;80.05;95472.61;1709053;84;21103;-71
2022/08/26 01:10:54;;;;;;;7.62;3.00;;;;;;;14.62;79.82;95480.18;1708897;84;21066;-70
2022/08/26 01:13:22;;;;;;;4.72;2.75;;;;;;;14.63;79.35;95479.25;1709252;84;21011;-71
2022/08/26 01:15:54;;;;;;;16.20;3.75;;;;;;;14.57;79.44;95483.94;1708985;84;21047;-71
2022/08/26 01:18:22;;;;;;;9.33;3.30;;;;;;;14.52;79.92;95488.52;1709033;83;21536;-70
2022/08/26 01:21:38;;;;;;;13.32;3.15;;;;;;;14.49;79.39;95478.87;1709132;83;21023;-71
2022/08/26 01:24:06;;;;;;;10.08;3.45;;;;;;;14.57;79.58;95476.83;1708643;84;21022;-71
2022/08/26 01:26:39;;;;;;;11.53;3.58;;;;;;;14.61;80.06;95486.39;1709105;84;21046;-71
2022/08/26 01:29:09;;;;;;;9.67;3.47;;;;;;;14.52;79.10;95481.41;1709355;84;21015;-71
2022/08/26 01:31:46;;;;;;;7.87;2.83;;;;;;;14.44;79.09;95483.47;1708734;84;21107;-71
2022/08/26 01:34:33;;;;;;;12.37;3.40;;;;;;;14.33;79.65;95486.48;1709380;84;21027;-71
2022/08/26 01:37:23;;;;;;;8.68;2.80;;;;;;;14.31;79.97;95479.49;1708891;84;21083;-71
2022/08/26 01:39:54;;;;;;;9.65;3.20;;;;;;;14.24;80.54;95485.50;1709068;84;21029;-71
2022/08/26 01:42:24;;;;;;;7.00;3.15;;;;;;;14.14;80.44;95483.62;1709103;83;21034;-71
2022/08/26 01:44:59;;;;;;;8.63;3.08;;;;;;;14.05;81.51;95478.61;1709025;83;21500;-71
2022/08/26 01:47:29;;;;;;;8.93;3.08;;;;;;;14.06;81.14;95481.22;1709141;84;21430;-71
2022/08/26 01:49:58;;;;;;;6.53;3.37;;;;;;;14.00;81.84;95481.41;1709146;84;21053;-71
2022/08/26 01:52:27;;;;;;;9.30;3.27;;;;;;;14.00;81.54;95483.20;1708905;83;21094;-71
2022/08/26 01:54:56;;;;;;;5.67;3.15;;;;;;;13.98;81.49;95482.39;1708836;84;21549;-71
2022/08/26 01:57:24;;;;;;;6.30;3.17;;;;;;;14.01;81.45;95478.30;1709130;83;21047;-71
2022/08/26 01:59:54;;;;;;;12.00;3.40;;;;;;;14.00;81.21;95480.55;1712914;83;21039;-71
2022/08/26 02:02:22;;;;;;;15.18;3.25;;;;;;;13.99;80.68;95482.34;1732047;83;21066;-71
2022/08/26 02:04:53;;;;;;;14.75;3.50;;;;;;;14.08;81.22;95481.16;1732187;83;20987;-70
2022/08/26 02:07:21;;;;;;;5.05;2.80;;;;;;;14.14;81.02;95473.00;1731158;83;21046;-71
2022/08/26 02:09:48;;;;;;;14.40;3.22;;;;;;;14.21;80.38;95477.62;1731800;83;21075;-71
2022/08/26 02:12:18;;;;;;;9.25;3.25;;;;;;;14.20;80.60;95473.24;1732079;83;21018;-71
2022/08/26 02:14:52;;;;;;;15.68;3.60;;;;;;;14.24;80.80;95469.11;1731943;83;21078;-71
2022/08/26 02:17:24;;;;;;;3.80;2.80;;;;;;;14.29;80.04;95471.61;1732350;83;21528;-71
2022/08/26 02:19:50;;;;;;;9.43;5.55;;;;;;;14.32;79.55;95471.95;1731423;83;21047;-71
2022/08/26 02:22:22;;;;;;;11.00;3.15;;;;;;;14.24;79.28;95471.76;1732039;83;21019;-71
2022/08/26 02:24:56;;;;;;;7.35;2.70;;;;;;;14.16;79.31;95470.27;1732081;83;21066;-71
2022/08/26 02:27:31;;;;;;;5.78;3.12;;;;;;;14.10;79.16;95473.16;1732008;82;20999;-70
2022/08/26 02:30:03;;;;;;;11.65;3.47;;;;;;;14.07;79.55;95470.14;1732196;82;21030;-71
2022/08/26 02:32:30;;;;;;;7.42;3.35;;;;;;;14.09;79.65;95474.09;1731581;83;21047;-71
2022/08/26 02:34:56;;;;;;;8.03;3.30;;;;;;;14.10;79.60;95470.50;1732066;83;21031;-71
2022/08/26 02:37:27;;;;;;;10.90;3.25;;;;;;;14.01;80.00;95465.92;1732157;83;20986;-71
2022/08/26 02:39:54;;;;;;;5.78;3.62;;;;;;;13.95;80.82;95467.91;1732382;83;21034;-71
2022/08/26 02:42:20;;;;;;;7.03;3.50;;;;;;;13.92;80.29;95468.02;1731804;83;21007;-71
2022/08/26 02:44:48;;;;;;;10.03;3.17;;;;;;;13.83;80.28;95463.44;1732335;83;21038;-71
2022/08/26 02:47:15;;;;;;;9.50;3.30;;;;;;;13.75;81.07;95457.50;1732067;83;21588;-71
2022/08/26 02:49:43;;;;;;;9.28;3.30;;;;;;;13.74;81.58;95467.70;1731688;83;21027;-71
2022/08/26 02:52:11;;;;;;;9.73;3.47;;;;;;;13.72;81.21;95462.91;1732068;83;21548;-71
2022/08/26 02:54:38;;;;;;;7.33;3.12;;;;;;;13.70;81.37;95465.20;1731885;83;21018;-70
2022/08/26 02:57:04;;;;;;;5.30;2.90;;;;;;;13.69;81.33;95462.16;1732062;83;21034;-71
2022/08/26 02:59:31;;;;;;;6.55;3.22;;;;;;;13.65;81.11;95465.34;1732046;83;21035;-71
2022/08/26 03:01:59;;;;;;;10.05;3.05;;;;;;;13.58;82.12;95462.48;1689115;84;21038;-71
2022/08/26 03:04:26;;;;;;;8.08;3.25;;;;;;;13.57;81.32;95462.95;1708741;83;21003;-71
2022/08/26 03:06:54;;;;;;;9.95;3.17;;;;;;;13.60;81.32;95465.95;1709119;84;21058;-71
2022/08/26 03:09:20;;;;;;;6.95;3.00;;;;;;;13.59;80.94;95461.58;1708638;83;21070;-71
2022/08/26 03:11:46;;;;;;;5.53;3.17;;;;;;;13.60;80.80;95462.84;1708913;84;20995;-71
2022/08/26 03:14:14;;;;;;;8.13;3.05;;;;;;;13.67;80.85;95460.87;1709282;84;21043;-71
2022/08/26 03:16:41;;;;;;;10.85;3.80;;;;;;;13.65;80.43;95456.06;1708853;83;20991;-71
2022/08/26 03:19:10;;;;;;;10.05;3.15;;;;;;;13.59;80.73;95460.26;1708755;83;21062;-71
2022/08/26 03:21:38;;;;;;;9.25;3.10;;;;;;;13.55;81.37;95459.47;1709079;84;21027;-71
2022/08/26 03:24:05;;;;;;;7.10;2.90;;;;;;;13.64;81.17;95458.33;1708957;83;20992;-71
2022/08/26 03:26:32;;;;;;;5.20;3.08;;;;;;;13.63;80.59;95463.20;1708861;84;21063;-71
2022/08/26 03:31:44;;;;;;;15.05;2.92;;;;;;;13.66;80.94;95467.53;1708956;83;21043;-71
2022/08/26 03:34:10;;;;;;;11.35;3.42;;;;;;;13.57;81.30;95460.76;1708905;84;21113;-71
2022/08/26 03:36:37;;;;;;;11.88;3.33;;;;;;;13.47;81.16;95462.84;1709032;84;21548;-71
2022/08/26 03:39:04;;;;;;;11.10;2.87;;;;;;;13.50;81.34;95462.73;1708735;84;21106;-71
2022/08/26 03:41:34;;;;;;;8.28;2.85;;;;;;;13.48;81.73;95463.70;1708868;83;21032;-71
2022/08/26 03:44:04;;;;;;;8.13;2.80;;;;;;;13.48;81.82;95463.27;1708859;83;21098;-70
2022/08/26 03:46:32;;;;;;;10.68;3.15;;;;;;;13.44;81.62;95462.08;1708953;83;21043;-71
2022/08/26 03:49:01;;;;;;;9.08;2.62;;;;;;;13.50;81.47;95456.10;1709197;83;21018;-71
2022/08/26 03:51:28;;;;;;;5.97;2.80;;;;;;;13.50;80.95;95455.25;1708994;83;21078;-70
2022/08/26 03:53:55;;;;;;;5.92;2.50;;;;;;;13.59;81.42;95454.49;1709068;83;21038;-71
2022/08/26 03:56:21;;;;;;;10.30;3.45;;;;;;;13.69;81.00;95451.08;1688428;84;21047;-71
2022/08/26 03:58:48;;;;;;;13.03;4.33;;;;;;;13.67;80.67;95463.98;1709094;84;21006;-71
2022/08/26 04:01:15;;;;;;;5.50;2.87;;;;;;;13.58;81.33;95455.42;1721332;83;21109;-71
2022/08/26 04:03:56;;;;;;;12.03;3.47;;;;;;;13.59;81.38;95454.49;1732504;83;21003;-71
2022/08/26 04:06:27;;;;;;;5.55;2.40;;;;;;;13.61;81.07;95451.80;1732239;83;21011;-71
2022/08/26 04:09:00;;;;;;;7.75;2.60;;;;;;;13.57;80.49;95458.11;1732306;82;21006;-71
2022/08/26 04:11:30;;;;;;;6.33;2.52;;;;;;;13.56;81.54;95457.72;1732065;83;20991;-71
2022/08/26 04:14:04;;;;;;;7.35;2.77;;;;;;;13.60;81.69;95458.00;1732136;83;20967;-71
2022/08/26 04:16:31;;;;;;;5.00;2.70;;;;;;;13.58;81.15;95463.38;1732451;83;21026;-71
2022/08/26 04:18:58;;;;;;;6.72;2.30;;;;;;;13.60;80.95;95457.54;1732078;83;21071;-71
2022/08/26 04:21:26;;;;;;;6.42;2.70;;;;;;;13.69;81.81;95460.83;1732249;83;21031;-71
2022/08/26 04:23:54;;;;;;;7.47;2.92;;;;;;;13.73;81.08;95459.33;1732269;83;20994;-71
2022/08/26 04:26:22;;;;;;;7.12;2.72;;;;;;;13.75;80.97;95455.31;1732086;83;21055;-71
2022/08/26 04:28:52;;;;;;;8.30;3.37;;;;;;;13.72;81.29;95457.61;1732194;83;21014;-71
2022/08/26 04:31:19;;;;;;;6.95;3.00;;;;;;;13.77;81.21;95457.45;1731894;83;21041;-71
2022/08/26 04:33:48;;;;;;;7.53;2.55;;;;;;;13.80;81.73;95459.53;1732173;83;21010;-71
2022/08/26 04:36:16;;;;;;;4.58;3.02;;;;;;;13.85;81.72;95457.59;1732077;83;21018;-71
2022/08/26 04:38:44;;;;;;;4.87;3.37;;;;;;;13.92;82.07;95458.27;1732395;83;21014;-71
2022/08/26 04:41:12;;;;;;;5.70;2.60;;;;;;;14.04;81.92;95459.65;1731981;83;21038;-71
2022/08/26 04:43:40;;;;;;;8.28;2.92;;;;;;;14.11;81.50;95456.30;1732113;83;20987;-71
2022/08/26 04:46:08;;;;;;;9.30;2.58;;;;;;;14.10;81.10;95460.75;1731909;83;20983;-71
2022/08/26 04:48:35;;;;;;;7.08;2.72;;;;;;;14.06;81.51;95465.73;1732110;83;21007;-71
2022/08/26 04:51:03;;;;;;;5.22;2.47;;;;;;;14.09;82.17;95460.82;1732012;83;21050;-71
2022/08/26 04:53:31;;;;;;;11.40;3.75;;;;;;;14.18;82.07;95466.64;1732235;83;21042;-71
2022/08/26 04:55:57;;;;;;;9.48;2.65;;;;;;;14.34;82.53;95463.02;1731959;83;21047;-70
2022/08/26 04:58:24;;;;;;;5.70;2.90;;;;;;;14.45;81.69;95464.81;1732373;83;21026;-71
2022/08/26 05:00:54;;;;;;;9.50;3.22;;;;;;;14.48;81.56;95463.84;1731898;83;21038;-70
2022/08/26 05:03:22;;;;;;;12.20;3.30;;;;;;;14.63;82.17;95466.44;1732080;83;21102;-71
2022/08/26 05:05:50;;;;;;;6.70;2.95;;;;;;;14.83;81.76;95468.36;1732123;83;21042;-71
2022/08/26 05:08:19;;;;;;;7.58;3.05;;;;;;;15.01;81.23;95459.69;1732644;83;21083;-71
2022/08/26 05:10:50;;;;;;;9.28;3.65;;;;;;;15.22;81.08;95472.64;1732154;82;21031;-71
2022/08/26 05:13:19;;;;;;;9.23;2.92;;;;;;;15.40;80.61;95467.53;1732156;82;21126;-71
2022/08/26 05:15:47;;;;;;;9.93;2.98;;;;;;;15.59;79.96;95464.05;1732024;83;21541;-71
2022/08/26 05:18:16;;;;;;;8.80;2.80;;;;;;;15.74;78.89;95459.08;1732102;83;21075;-71
2022/08/26 05:20:47;;;;;;;7.72;2.90;;;;;;;15.85;77.91;95456.86;1732114;83;21457;-71
2022/08/26 05:23:15;;;;;;;7.65;2.80;;;;;;;15.89;76.26;95457.11;1732024;83;20987;-71
2022/08/26 05:25:46;;;;;;;11.30;2.95;;;;;;;15.91;75.84;95459.72;1732131;83;21487;-71
2022/08/26 05:28:15;;;;;;;6.15;2.92;;;;;;;16.08;76.52;95450.56;1731980;83;21519;-71
2022/08/26 05:30:42;;;;;;;7.03;2.60;;;;;;;16.20;76.29;95452.70;1732035;82;21015;-71
2022/08/26 05:33:10;;;;;;;5.90;3.08;;;;;;;16.33;75.84;95450.81;1732062;83;20983;-71
2022/08/26 05:35:38;;;;;;;8.00;2.90;;;;;;;16.39;76.03;95452.76;1732066;83;21018;-71
2022/08/26 05:38:08;;;;;;;8.70;2.72;;;;;;;16.48;75.90;95446.18;1732071;83;21051;-72
2022/08/26 05:40:39;;;;;;;10.35;3.02;;;;;;;16.67;74.52;95450.20;1732138;83;21476;-71
2022/08/26 05:43:09;;;;;;;8.85;3.05;;;;;;;16.67;74.52;95450.20;1731748;83;21544;-71
2022/08/26 05:45:39;;;;;;;9.03;2.70;;;;;;;16.80;74.65;95444.75;1732079;83;20994;-71
2022/08/26 05:48:09;;;;;;;7.92;2.72;;;;;;;16.95;73.41;95444.52;1731918;83;21030;-71
2022/08/26 05:50:40;;;;;;;3.87;2.65;;;;;;;17.06;73.37;95443.58;1732065;83;20959;-71
2022/08/26 05:53:09;;;;;;;12.10;3.17;;;;;;;17.18;73.34;95442.11;1732110;83;21567;-71
2022/08/26 05:55:43;;;;;;;4.47;2.58;;;;;;;17.28;73.01;95446.55;1732164;83;21010;-71
2022/08/26 05:58:10;;;;;;;4.67;2.42;;;;;;;17.38;72.39;95445.17;1731969;83;21032;-71
2022/08/26 06:00:38;;;;;;;7.28;2.50;;;;;;;17.50;72.41;95445.06;1730614;83;21042;-71
2022/08/26 06:03:05;;;;;;;9.40;3.08;;;;;;;17.58;72.66;95446.03;1701333;84;21458;-71
2022/08/26 06:05:31;;;;;;;6.00;2.62;;;;;;;17.68;72.69;95445.50;1701225;84;21508;-71
2022/08/26 06:08:10;;;;;;;6.87;2.90;;;;;;;17.82;72.64;95449.34;1701019;84;21103;-71
2022/08/26 06:10:52;;;;;;;7.72;2.95;;;;;;;17.95;72.39;95446.45;1701472;84;21014;-71
2022/08/26 06:13:22;;;;;;;9.13;3.10;;;;;;;18.08;71.96;95436.88;1701227;84;21063;-71
2022/08/26 06:15:50;;;;;;;5.87;3.12;;;;;;;18.21;71.22;95440.27;1701169;84;21071;-71
2022/08/26 06:18:22;;;;;;;7.75;2.72;;;;;;;18.33;71.31;95439.64;1701188;84;21047;-71
2022/08/26 06:20:50;;;;;;;5.40;2.47;;;;;;;18.44;71.23;95438.59;1701017;84;21035;-72
2022/08/26 06:26:04;;;;;;;7.22;2.70;;;;;;;18.68;71.12;95434.27;1701194;84;20995;-71
2022/08/26 06:28:32;;;;;;;6.12;2.80;;;;;;;18.80;70.71;95435.84;1701250;84;21460;-71
2022/08/26 06:31:01;;;;;;;7.92;2.80;;;;;;;18.92;70.18;95440.98;1701017;84;21079;-71
2022/08/26 06:33:27;;;;;;;13.15;3.42;;;;;;;19.02;67.84;95441.36;1701177;84;20984;-71
2022/08/26 06:35:54;;;;;;;11.12;3.10;;;;;;;19.12;68.62;95435.04;1701196;84;20988;-71
2022/08/26 06:38:21;;;;;;;6.03;2.62;;;;;;;19.23;68.59;95438.00;1701137;84;21501;-71
2022/08/26 06:40:51;;;;;;;6.97;2.65;;;;;;;19.34;68.24;95434.72;1701163;84;21020;-71
2022/08/26 06:43:22;;;;;;;9.58;2.70;;;;;;;19.45;68.31;95434.53;1701188;84;21031;-71
2022/08/26 06:45:49;;;;;;;9.28;2.80;;;;;;;19.57;67.97;95427.59;1701230;84;21457;-71
2022/08/26 06:48:19;;;;;;;6.47;2.75;;;;;;;19.69;67.13;95427.42;1701051;84;21018;-71
2022/08/26 06:50:47;;;;;;;8.85;2.80;;;;;;;19.82;66.74;95434.27;1701199;84;20984;-71
2022/08/26 06:53:13;;;;;;;17.70;2.90;;;;;;;19.93;66.74;95431.81;1701024;84;21063;-71
2022/08/26 06:55:44;;;;;;;5.60;2.60;;;;;;;20.03;65.01;95428.13;1701077;84;21094;-71
2022/08/26 06:58:13;;;;;;;7.67;2.92;;;;;;;20.18;65.21;95431.73;1701161;84;21035;-71
2022/08/26 07:00:39;;;;;;;5.40;2.83;;;;;;;20.32;65.41;95424.59;1701007;84;21078;-71
2022/08/26 07:03:07;;;;;;;7.28;3.05;;;;;;;20.49;65.23;95424.08;1700972;84;21512;-71
2022/08/26 07:05:34;;;;;;;4.25;2.85;;;;;;;20.64;64.53;95425.00;1701369;84;21012;-71
2022/08/26 07:08:02;;;;;;;8.40;3.02;;;;;;;20.78;64.55;95425.00;1701065;84;20971;-71
2022/08/26 07:10:30;;;;;;;6.67;2.55;;;;;;;20.92;64.22;95422.34;1701122;84;21023;-71
2022/08/26 07:12:57;;;;;;;5.17;2.77;;;;;;;21.07;63.97;95415.64;1701020;84;21020;-71
2022/08/26 07:15:23;;;;;;;8.53;2.60;;;;;;;21.22;64.54;95415.13;1701090;84;21027;-71
2022/08/26 07:17:50;;;;;;;10.13;2.92;;;;;;;21.38;64.59;95409.17;1701368;84;20984;-71
2022/08/26 07:20:17;;;;;;;6.65;2.80;;;;;;;21.53;64.36;95405.53;1701229;84;21059;-71
2022/08/26 07:22:43;;;;;;;7.85;2.87;;;;;;;21.69;61.99;95405.87;1679327;84;21036;-71
2022/08/26 07:25:10;;;;;;;8.15;3.25;;;;;;;21.85;61.28;95403.03;1701437;84;21520;-71
2022/08/26 07:27:38;;;;;;;12.50;3.95;;;;;;;22.00;60.41;95405.58;1701280;84;21008;-71
2022/08/26 07:30:07;;;;;;;14.18;3.25;;;;;;;22.19;59.78;95408.36;1700964;84;20980;-71
2022/08/26 07:32:34;;;;;;;11.55;3.10;;;;;;;22.36;60.19;95404.58;1701312;84;21038;-71
2022/08/26 07:35:00;;;;;;;4.22;2.90;;;;;;;22.54;58.34;95406.48;1701539;84;21071;-71
2022/08/26 07:37:27;;;;;;;5.80;3.08;;;;;;;22.67;56.06;95395.24;1701153;84;20984;-71
2022/08/26 07:39:54;;;;;;;9.88;3.15;;;;;;;22.82;55.10;95394.17;1701114;84;21587;-71
2022/08/26 07:42:21;;;;;;;8.68;2.65;;;;;;;22.96;56.10;95389.17;1701250;84;22427;-70
2022/08/26 07:44:48;;;;;;;7.65;2.80;;;;;;;23.11;55.35;95389.46;1701157;84;21083;-71
2022/08/26 07:47:15;;;;;;;6.30;2.80;;;;;;;23.24;54.09;95392.63;1701425;84;21501;-71
2022/08/26 07:49:41;;;;;;;4.28;3.37;;;;;;;23.35;52.89;95388.66;1701207;84;21070;-71
2022/08/26 07:52:08;;;;;;;12.50;3.52;;;;;;;23.47;52.97;95389.61;1701359;84;21024;-71
2022/08/26 07:54:36;;;;;;;12.03;2.80;;;;;;;23.58;53.33;95386.97;1701483;84;20989;-71
2022/08/26 07:57:04;;;;;;;8.68;3.08;;;;;;;23.69;51.77;95385.71;1701450;84;21085;-71
2022/08/26 07:59:30;;;;;;;8.05;2.92;;;;;;;23.80;52.00;95380.05;1701274;84;21549;-71
2022/08/26 08:01:58;;;;;;;10.85;3.08;;;;;;;23.91;51.46;95375.58;1701277;84;21111;-71
2022/08/26 08:04:25;;;;;;;22.67;3.15;;;;;;;24.02;51.67;95379.30;1701195;84;21011;-71
2022/08/26 08:06:52;;;;;;;12.93;3.42;;;;;;;24.15;50.09;95380.09;1701324;84;21015;-71
2022/08/26 08:09:19;;;;;;;10.85;3.22;;;;;;;24.27;50.24;95375.61;1701389;84;21472;-71
2022/08/26 08:11:45;;;;;;;9.65;3.10;;;;;;;24.39;50.91;95374.64;1700871;84;21018;-71
2022/08/26 08:14:12;;;;;;;11.63;3.20;;;;;;;24.52;48.60;95378.62;1701265;84;21034;-71
2022/08/26 08:16:39;;;;;;;15.95;3.55;;;;;;;24.59;46.68;95374.02;1701372;84;21047;-71
2022/08/26 08:19:06;;;;;;;8.93;3.10;;;;;;;24.65;47.99;95360.53;1701222;84;21472;-71
2022/08/26 08:21:33;;;;;;;9.63;3.40;;;;;;;24.74;45.70;95357.59;1701440;84;21019;-71
2022/08/26 08:23:59;;;;;;;16.52;3.50;;;;;;;24.79;46.52;95361.64;1701251;84;21034;-71
2022/08/26 08:26:27;;;;;;;10.30;2.95;;;;;;;24.86;46.25;95362.03;1700952;84;21011;-71
2022/08/26 08:28:55;;;;;;;12.47;3.40;;;;;;;24.95;45.82;95353.71;1701149;84;21533;-71
2022/08/26 08:31:25;;;;;;;12.43;3.30;;;;;;;25.09;47.41;95347.20;1701149;84;21039;-71
2022/08/26 08:33:53;;;;;;;12.20;3.80;;;;;;;25.22;46.26;95351.53;1701188;84;21044;-71
2022/08/26 08:36:19;;;;;;;11.50;3.02;;;;;;;25.34;46.39;95353.71;1701399;84;21063;-71
2022/08/26 08:38:46;;;;;;;12.70;3.87;;;;;;;25.46;46.24;95354.07;1701140;84;21031;-71
2022/08/26 08:41:36;;;;;;;13.05;3.33;;;;;;;25.58;43.22;95356.27;1700998;84;21032;-71
2022/08/26 08:44:09;;;;;;;9.65;3.15;;;;;;;25.74;45.44;95357.70;1701325;84;21536;-71
2022/08/26 08:46:38;;;;;;;9.10;3.15;;;;;;;25.81;43.56;95348.11;1701286;84;21027;-70
2022/08/26 08:49:05;;;;;;;19.02;3.50;;;;;;;25.90;43.01;95348.23;1701222;84;21561;-71
2022/08/26 08:51:55;;;;;;;10.48;3.20;;;;;;;26.02;43.02;95350.89;1701116;84;21548;-71
2022/08/26 08:54:25;;;;;;;10.72;3.90;;;;;;;26.12;43.40;95349.98;1700929;84;21067;-70
2022/08/26 08:56:59;;;;;;;8.65;3.72;;;;;;;26.27;44.02;95347.83;1701422;84;21063;-71
2022/08/26 08:59:32;;;;;;;10.20;3.20;;;;;;;26.41;42.77;95348.48;1700429;84;21135;-71
2022/08/26 09:02:14;;;;;;;9.55;3.55;;;;;;;26.51;41.74;95340.83;1701306;83;21115;-70
2022/08/26 09:05:03;;;;;;;10.88;3.45;;;;;;;26.61;41.71;95340.05;1701307;84;21051;-71
2022/08/26 09:07:57;;;;;;;8.78;3.20;;;;;;;26.73;40.34;95330.86;1701024;84;21063;-71
2022/08/26 09:10:31;;;;;;;17.62;3.27;;;;;;;26.80;39.63;95335.26;1701247;84;21501;-71
2022/08/26 09:13:01;;;;;;;14.33;3.20;;;;;;;26.85;40.66;95333.00;1701140;84;21360;-71
2022/08/26 09:15:59;;;;;;;11.70;2.90;;;;;;;26.92;38.56;95332.83;1701114;84;21070;-71
2022/08/26 09:19:13;;;;;;;11.12;3.00;;;;;;;26.95;37.96;95323.94;1698404;84;21067;-71
2022/08/26 09:21:40;;;;;;;14.10;3.30;;;;;;;27.08;37.92;95324.20;1700785;84;21099;-71
2022/08/26 09:24:07;;;;;;;17.90;3.10;;;;;;;27.23;39.50;95318.81;1701363;84;21007;-71
2022/08/26 09:26:45;;;;;;;9.75;2.70;;;;;;;27.38;39.62;95318.78;1701370;84;20984;-70
2022/08/26 09:29:26;;;;;;;12.05;2.92;;;;;;;27.49;40.05;95310.19;1701029;84;20976;-70
2022/08/26 09:32:20;;;;;;;13.60;3.10;;;;;;;27.57;38.80;95308.52;1701405;84;21058;-70
2022/08/26 09:34:58;;;;;;;6.97;2.65;;;;;;;27.73;38.75;95304.40;1700570;84;21074;-70
2022/08/26 09:37:39;;;;;;;16.37;3.58;;;;;;;27.81;38.84;95305.42;1701338;84;21016;-71
2022/08/26 09:40:34;;;;;;;15.78;2.98;;;;;;;27.89;38.83;95300.65;1701344;84;21083;-70
2022/08/26 09:43:15;;;;;;;12.43;3.37;;;;;;;27.95;37.35;95300.10;1700748;84;21565;-70
2022/08/26 09:45:46;;;;;;;16.23;3.50;;;;;;;28.03;37.14;95298.03;1701496;84;21492;-71
2022/08/26 09:48:27;;;;;;;9.68;3.00;;;;;;;28.13;39.83;95298.89;1701209;84;21000;-70
2022/08/26 09:51:06;;;;;;;12.07;2.95;;;;;;;28.16;37.96;95304.02;1701123;84;21012;-71
2022/08/26 09:53:36;;;;;;;8.95;2.92;;;;;;;28.24;36.98;95300.59;1679448;84;21054;-71
2022/08/26 09:56:17;;;;;;;14.28;3.45;;;;;;;28.35;38.55;95298.22;1701174;84;21046;-70
2022/08/26 09:58:46;;;;;;;11.10;2.85;;;;;;;28.47;38.00;95293.02;1701102;84;21063;-71
2022/08/26 10:01:34;;;;;;;14.33;2.85;;;;;;;28.57;37.12;95293.86;1701221;84;21022;-71
2022/08/26 10:04:23;;;;;;;13.22;3.12;;;;;;;28.72;38.19;95294.25;1701005;84;21054;-71
2022/08/26 10:07:06;;;;;;;11.83;2.95;;;;;;;28.84;36.88;95293.08;1701506;84;21027;-71
2022/08/26 10:09:38;;;;;;;5.80;2.75;;;;;;;28.87;34.73;95296.85;1701233;84;21540;-71
2022/08/26 10:12:10;;;;;;;14.15;3.30;;;;;;;28.94;36.04;95297.13;1701199;84;21023;-71
2022/08/26 10:14:42;;;;;;;9.43;2.95;;;;;;;28.94;36.09;95295.77;1701020;84;20980;-71
2022/08/26 10:17:23;;;;;;;7.40;2.65;;;;;;;29.06;37.61;95298.69;1701160;84;21493;-71
2022/08/26 10:20:10;;;;;;;13.00;2.98;;;;;;;29.21;37.36;95292.27;1701273;84;21564;-71
2022/08/26 10:22:47;;;;;;;9.60;2.58;;;;;;;29.31;34.86;95297.66;1700826;84;21036;-71
2022/08/26 10:25:19;;;;;;;7.33;2.70;;;;;;;29.24;32.79;95288.39;1695032;84;21023;-71
2022/08/26 10:27:51;;;;;;;9.28;2.98;;;;;;;29.32;35.73;95288.48;1701093;84;21039;-71
2022/08/26 10:30:22;;;;;;;8.05;2.80;;;;;;;29.48;35.49;95293.25;1699131;84;21502;-71
2022/08/26 10:33:03;;;;;;;9.48;3.33;;;;;;;29.63;33.83;95289.52;1701187;84;21027;-71
2022/08/26 10:35:31;;;;;;;7.47;2.77;;;;;;;29.70;35.16;95287.43;1701378;84;21003;-71
2022/08/26 10:38:03;;;;;;;6.30;2.87;;;;;;;29.84;35.58;95282.49;1701179;84;21074;-71
2022/08/26 10:40:38;;;;;;;8.48;2.60;;;;;;;29.92;33.42;95285.29;1701523;84;21030;-71
2022/08/26 10:43:13;;;;;;;15.55;2.92;;;;;;;29.81;32.25;95280.94;1700328;84;21536;-71
2022/08/26 10:45:50;;;;;;;11.22;2.72;;;;;;;30.02;34.39;95280.63;1701146;84;21018;-71
2022/08/26 10:48:52;;;;;;;11.28;2.87;;;;;;;30.17;31.31;95276.86;1701020;84;21039;-71
2022/08/26 10:51:35;;;;;;;11.83;3.00;;;;;;;30.18;32.85;95264.44;1701468;84;21040;-71
2022/08/26 10:54:06;;;;;;;17.40;3.10;;;;;;;30.14;29.82;95263.57;1701257;84;21047;-71
2022/08/26 10:56:47;;;;;;;14.60;3.75;;;;;;;30.30;32.04;95269.67;1700992;84;21159;-71
2022/08/26 10:59:46;;;;;;;15.30;5.80;;;;;;;30.41;30.51;95266.69;1700900;84;21027;-70
2022/08/26 11:02:18;;;;;;;12.68;2.42;;;;;;;30.56;29.41;95267.83;1702550;83;21038;-70
2022/08/26 11:05:01;;;;;;;9.13;2.70;;;;;;;30.70;29.25;95275.94;1732495;82;21034;-71
2022/08/26 11:07:36;;;;;;;19.85;3.50;;;;;;;30.83;29.86;95267.37;1732004;83;20987;-71
2022/08/26 11:10:17;;;;;;;15.00;2.92;;;;;;;30.92;28.29;95267.77;1731185;83;21004;-71
2022/08/26 11:12:54;;;;;;;10.75;2.50;;;;;;;30.90;27.94;95259.41;1732051;82;21084;-70
2022/08/26 11:15:28;;;;;;;10.63;2.55;;;;;;;30.80;26.86;95263.06;1732194;83;21089;-71
2022/08/26 11:18:02;;;;;;;10.70;2.52;;;;;;;30.89;29.22;95263.98;1732173;83;21023;-71
2022/08/26 11:20:43;;;;;;;7.47;2.55;;;;;;;31.02;28.86;95257.61;1732092;83;21037;-71
2022/08/26 11:23:27;;;;;;;10.00;2.07;;;;;;;31.14;25.80;95255.43;1732290;82;21520;-71
2022/08/26 11:26:13;;;;;;;11.83;2.40;;;;;;;31.25;27.59;95245.62;1732079;83;20963;-71
2022/08/26 11:28:44;;;;;;;14.35;3.47;;;;;;;31.50;26.65;95244.87;1731780;83;21033;-70
2022/08/26 11:31:29;;;;;;;9.53;2.83;;;;;;;31.68;25.34;95246.98;1732341;83;21456;-71
2022/08/26 11:34:03;;;;;;;4.33;2.17;;;;;;;31.83;25.78;95252.65;1731561;83;21043;-70
2022/08/26 11:36:41;;;;;;;15.58;2.50;;;;;;;31.94;24.55;95249.61;1732051;83;21022;-71
2022/08/26 11:39:47;;;;;;;9.08;2.50;;;;;;;32.40;25.66;95251.33;1730253;83;21042;-71
2022/08/26 11:42:37;;;;;;;11.40;2.58;;;;;;;32.84;24.89;95238.69;1731375;83;21022;-71
2022/08/26 11:45:27;;;;;;;11.38;2.30;;;;;;;33.43;25.39;95241.06;1731655;83;21030;-71
2022/08/26 11:47:54;;;;;;;9.43;2.30;;;;;;;33.87;23.81;95234.19;1731310;83;21066;-70
2022/08/26 11:50:27;;;;;;;12.43;2.58;;;;;;;34.29;23.68;95223.30;1732232;83;21516;-71
2022/08/26 11:53:04;;;;;;;10.55;4.53;;;;;;;34.55;21.62;95223.77;1732293;83;21031;-71
2022/08/26 11:55:33;;;;;;;11.33;3.10;;;;;;;34.77;21.62;95216.54;1731589;83;21094;-71